Amargosa Valley, Nevada
Current Conditions -  °F | °C
As of 2:58 AM on Friday 31 Oct 2014 (Local Time) from KINS Reporting Station
Scattered Clouds Scattered Clouds  
Wind Chill: 57°   Ceiling: Unl
Heat Index: 57°   Visibility: 10mi
Dew Point: 21°   Wind: 1mph
Humidity: 25%   Direction: 350°N
Pressure: 29.96"   Gusts: NA
Location:  36.64°N, 116.4°W
Report Text: KINS 310958Z AUTO 35001KT 10SM SCT170 14/M06 A2996 RMK AO2 SLP107 T01401061 $
Loading
Personal Weather Stations






























Interactive Weather Map
Tropical Storm Tracking
New forecast layout! Learn more

10-Day Weather Forecast

Advertisements
Track Severe Weather on mobile